Time;durP1;ratioP1;P1;durP2;ratioP2;P2;SDS_P1;SDS_P2;PMS_P1;PMS_P2;Temp;Humidity;BMP_temperature;BMP_pressure;BME280_temperature;BME280_humidity;BME280_pressure;Samples;Min_cycle;Max_cycle;Signal;HPM_P1;HPM_P2
2022/06/22 00:00:42;;;;;;;0.80;0.50;;;23.00;52.10;;;;;;6267780;28;20036;-70
2022/06/22 00:03:48;;;;;;;1.05;0.68;;;23.10;52.10;;;;;;6267736;28;20170;-70
2022/06/22 00:06:57;;;;;;;0.70;0.60;;;23.00;52.10;;;;;;6268523;28;20036;-70
2022/06/22 00:10:18;;;;;;;1.40;0.50;;;23.00;52.10;;;;;;6268767;28;20429;-70
2022/06/22 00:13:25;;;;;;;0.50;0.50;;;23.00;52.20;;;;;;6267474;28;20029;-70
2022/06/22 00:16:36;;;;;;;0.90;0.50;;;23.00;52.20;;;;;;6267267;28;20036;-70
2022/06/22 00:19:41;;;;;;;1.00;0.80;;;23.00;52.30;;;;;;6267489;28;20436;-70
2022/06/22 00:23:11;;;;;;;0.52;0.50;;;23.00;52.30;;;;;;6267261;28;20541;-70
2022/06/22 00:26:26;;;;;;;0.75;0.60;;;23.00;52.30;;;;;;6268349;28;20108;-70
2022/06/22 00:29:36;;;;;;;0.60;0.50;;;23.00;52.30;;;;;;6268413;28;20013;-70
2022/06/22 00:32:37;;;;;;;1.00;0.60;;;23.00;52.30;;;;;;6268536;28;20096;-70
2022/06/22 00:35:55;;;;;;;0.63;0.63;;;23.00;52.40;;;;;;6268635;28;20028;-70
2022/06/22 00:39:07;;;;;;;0.60;0.50;;;23.00;52.40;;;;;;6268523;28;20032;-70
2022/06/22 00:42:18;;;;;;;1.05;0.63;;;23.00;52.40;;;;;;6267310;28;20029;-70
2022/06/22 00:45:28;;;;;;;0.70;0.60;;;23.00;52.40;;;;;;6266601;28;20055;-70
2022/06/22 00:48:33;;;;;;;0.50;0.40;;;23.00;52.40;;;;;;6267511;28;20112;-70
2022/06/22 00:51:39;;;;;;;0.47;0.47;;;23.00;52.40;;;;;;6268345;28;20096;-69
2022/06/22 00:54:40;;;;;;;0.50;0.50;;;23.00;52.40;;;;;;6266590;28;20064;-70
2022/06/22 00:57:45;;;;;;;0.98;0.65;;;23.00;52.40;;;;;;6268672;28;20093;-70
2022/06/22 01:00:55;;;;;;;1.95;0.50;;;23.00;52.40;;;;;;6266817;28;20032;-70
2022/06/22 01:04:11;;;;;;;2.90;0.50;;;23.00;52.40;;;;;;6266651;28;20036;-70
2022/06/22 01:07:20;;;;;;;1.52;0.57;;;22.90;52.40;;;;;;6268313;28;20021;-70
2022/06/22 01:10:32;;;;;;;0.82;0.60;;;22.90;52.40;;;;;;6267148;28;20417;-70
2022/06/22 01:13:44;;;;;;;0.80;0.50;;;23.00;52.50;;;;;;6268053;28;20040;-70
2022/06/22 01:16:48;;;;;;;0.70;0.57;;;22.90;52.40;;;;;;6266563;28;20543;-70
2022/06/22 01:20:09;;;;;;;0.60;0.60;;;22.90;52.40;;;;;;6268063;28;20713;-70
2022/06/22 01:23:26;;;;;;;0.57;0.50;;;22.90;52.40;;;;;;6268015;28;20021;-70
2022/06/22 01:26:47;;;;;;;0.60;0.60;;;22.90;52.40;;;;;;6270338;28;20057;-70
2022/06/22 01:29:57;;;;;;;1.35;0.63;;;22.90;52.40;;;;;;6271349;28;20021;-70
2022/06/22 01:33:00;;;;;;;0.68;0.65;;;22.90;52.40;;;;;;6272357;28;20024;-70
2022/06/22 01:36:07;;;;;;;0.38;0.38;;;22.90;52.40;;;;;;6272673;28;20017;-70
2022/06/22 01:39:13;;;;;;;0.98;0.60;;;22.90;52.40;;;;;;6271486;28;20024;-70
2022/06/22 01:42:34;;;;;;;0.52;0.52;;;22.90;52.40;;;;;;6272331;28;20029;-70
2022/06/22 01:45:35;;;;;;;0.70;0.60;;;22.90;52.40;;;;;;6271166;28;20029;-70
2022/06/22 01:48:58;;;;;;;0.60;0.60;;;22.90;52.40;;;;;;6272126;28;20060;-70
2022/06/22 01:52:06;;;;;;;0.52;0.52;;;22.90;52.50;;;;;;6272285;28;20025;-69
2022/06/22 01:55:27;;;;;;;0.90;0.50;;;22.90;52.40;;;;;;6272043;28;20117;-70
2022/06/22 01:59:12;;;;;;;0.60;0.60;;;22.90;52.50;;;;;;6270699;28;20733;-70
2022/06/22 02:02:16;;;;;;;0.63;0.50;;;22.90;52.40;;;;;;6247787;28;20033;-70
2022/06/22 02:05:53;;;;;;;0.70;0.63;;;22.90;52.50;;;;;;6271850;28;20056;-70
2022/06/22 02:08:58;;;;;;;0.93;0.70;;;22.90;52.50;;;;;;6265150;28;20656;-70
2022/06/22 02:15:51;;;;;;;0.43;0.43;;;22.90;52.50;;;;;;6271429;28;20029;-70
2022/06/22 02:19:12;;;;;;;0.80;0.60;;;22.90;52.50;;;;;;6271592;28;20119;-70
2022/06/22 02:22:13;;;;;;;0.50;0.50;;;22.90;52.50;;;;;;6270197;28;20056;-70
2022/06/22 02:25:17;;;;;;;1.35;0.63;;;22.90;52.50;;;;;;6271664;28;20605;-70
2022/06/22 02:28:18;;;;;;;0.65;0.50;;;22.90;52.50;;;;;;6271312;28;20100;-70
2022/06/22 02:31:21;;;;;;;0.57;0.47;;;22.90;52.50;;;;;;6271486;28;20032;-70
2022/06/22 02:34:24;;;;;;;0.50;0.50;;;22.90;52.50;;;;;;6271111;28;20067;-70
2022/06/22 02:37:29;;;;;;;0.70;0.50;;;22.90;52.50;;;;;;6271012;28;20023;-70
2022/06/22 02:40:32;;;;;;;;;;;22.90;52.50;;;;;;6271394;28;20021;-70
2022/06/22 02:46:55;;;;;;;0.85;0.63;;;22.90;52.50;;;;;;6270794;28;20108;-70
2022/06/22 02:49:59;;;;;;;0.55;0.50;;;22.90;52.50;;;;;;6271222;28;20389;-70
2022/06/22 02:53:24;;;;;;;0.40;0.40;;;22.90;52.60;;;;;;6270888;28;20146;-70
2022/06/22 02:56:34;;;;;;;0.65;0.65;;;22.90;52.60;;;;;;6271047;28;20591;-70
2022/06/22 02:59:35;;;;;;;0.80;0.60;;;22.90;52.50;;;;;;6270872;28;20040;-70
2022/06/22 03:02:36;;;;;;;0.40;0.40;;;22.90;52.50;;;;;;6270682;28;20013;-70
2022/06/22 03:05:39;;;;;;;0.95;0.70;;;22.90;52.60;;;;;;6269816;28;20477;-70
2022/06/22 03:08:40;;;;;;;0.65;0.55;;;22.90;52.50;;;;;;6270248;28;20028;-70
2022/06/22 03:11:47;;;;;;;0.60;0.50;;;22.90;52.60;;;;;;6270254;28;20021;-70
2022/06/22 03:14:57;;;;;;;0.60;0.52;;;22.90;52.60;;;;;;6269892;28;20022;-70
2022/06/22 03:17:59;;;;;;;2.15;0.55;;;22.90;52.60;;;;;;6270476;28;20116;-71
2022/06/22 03:21:03;;;;;;;0.50;0.50;;;22.90;52.60;;;;;;6270332;28;20021;-70
2022/06/22 03:24:09;;;;;;;0.68;0.68;;;22.90;52.60;;;;;;6269790;28;20043;-70
2022/06/22 03:27:17;;;;;;;0.90;0.75;;;22.90;52.50;;;;;;6268981;28;20021;-70
2022/06/22 03:30:22;;;;;;;0.82;0.60;;;22.90;52.60;;;;;;6270166;28;20441;-70
2022/06/22 03:33:34;;;;;;;0.70;0.70;;;22.90;52.60;;;;;;6270195;28;20032;-70
2022/06/22 03:37:06;;;;;;;0.82;0.50;;;22.90;52.60;;;;;;6269718;28;20033;-70
2022/06/22 03:40:44;;;;;;;0.88;0.80;;;22.90;52.60;;;;;;6260636;28;20040;-70
2022/06/22 03:43:59;;;;;;;0.80;0.60;;;22.90;52.70;;;;;;6269493;28;20052;-70
2022/06/22 03:47:10;;;;;;;0.55;0.55;;;22.90;52.60;;;;;;6268354;28;20029;-72
2022/06/22 03:50:14;;;;;;;0.60;0.50;;;22.90;52.60;;;;;;6268986;28;20029;-70
2022/06/22 03:53:23;;;;;;;1.15;0.70;;;22.90;52.60;;;;;;6269569;28;20021;-70
2022/06/22 03:56:30;;;;;;;1.13;0.50;;;22.90;52.60;;;;;;6269257;28;20063;-69
2022/06/22 03:59:32;;;;;;;1.52;0.80;;;22.90;52.60;;;;;;6269252;28;20021;-70
2022/06/22 04:02:33;;;;;;;1.30;0.75;;;22.90;52.60;;;;;;6269455;28;20485;-70
2022/06/22 04:05:42;;;;;;;0.70;0.50;;;22.90;52.60;;;;;;6269129;28;20044;-69
2022/06/22 04:08:43;;;;;;;1.00;0.57;;;22.90;52.60;;;;;;6269280;28;20075;-70
2022/06/22 04:11:53;;;;;;;0.60;0.60;;;22.90;52.60;;;;;;6269107;28;20455;-70
2022/06/22 04:15:19;;;;;;;0.70;0.60;;;22.90;52.60;;;;;;6268714;28;20657;-70
2022/06/22 04:18:43;;;;;;;0.93;0.70;;;22.90;52.60;;;;;;6268931;28;20465;-70
2022/06/22 04:21:59;;;;;;;0.70;0.60;;;22.90;52.60;;;;;;6268990;28;20469;-70
2022/06/22 04:25:20;;;;;;;;;;;22.90;52.60;;;;;;6267973;28;20486;-70
2022/06/22 04:28:21;;;;;;;0.68;0.55;;;22.90;52.60;;;;;;6264315;28;19905;-70
2022/06/22 04:31:27;;;;;;;0.82;0.60;;;22.90;52.60;;;;;;6268242;28;20051;-70
2022/06/22 04:34:45;;;;;;;0.70;0.57;;;22.90;52.60;;;;;;6268672;28;20028;-70
2022/06/22 04:37:55;;;;;;;0.50;0.50;;;22.90;52.70;;;;;;6269410;28;20028;-71
2022/06/22 04:41:20;;;;;;;1.15;0.80;;;22.90;53.00;;;;;;6268210;28;20021;-70
2022/06/22 04:44:24;;;;;;;0.60;0.60;;;22.90;52.60;;;;;;6267899;28;20049;-71
2022/06/22 04:47:31;;;;;;;1.23;0.85;;;22.90;52.70;;;;;;6269733;28;20026;-70
2022/06/22 04:50:36;;;;;;;1.52;0.80;;;22.90;52.70;;;;;;6271123;28;20013;-71
2022/06/22 04:53:45;;;;;;;0.50;0.50;;;22.90;52.80;;;;;;6268989;28;20028;-71
2022/06/22 04:56:49;;;;;;;0.60;0.60;;;22.90;52.80;;;;;;6268805;28;20074;-71
2022/06/22 05:00:36;;;;;;;0.63;0.50;;;22.80;52.70;;;;;;6270231;28;20029;-70
2022/06/22 05:03:37;;;;;;;0.50;0.50;;;22.90;52.80;;;;;;6273554;28;20101;-71
2022/06/22 05:06:41;;;;;;;0.80;0.70;;;22.80;52.70;;;;;;6273839;28;20032;-70
2022/06/22 05:10:01;;;;;;;0.50;0.40;;;22.80;52.80;;;;;;6274050;28;20025;-70
2022/06/22 05:13:10;;;;;;;0.77;0.63;;;22.80;52.80;;;;;;6273647;28;20466;-71
2022/06/22 05:16:20;;;;;;;0.73;0.65;;;22.80;52.90;;;;;;6272348;28;20029;-70
2022/06/22 05:19:28;;;;;;;1.27;0.70;;;22.80;52.90;;;;;;6274142;28;20028;-70
2022/06/22 05:22:29;;;;;;;1.00;0.65;;;22.80;53.00;;;;;;6273594;28;20541;-70
2022/06/22 05:25:31;;;;;;;0.77;0.70;;;22.80;53.00;;;;;;6273643;28;20039;-72
2022/06/22 05:28:38;;;;;;;0.65;0.50;;;22.80;53.00;;;;;;6273876;28;20385;-72
2022/06/22 05:31:46;;;;;;;0.60;0.60;;;22.80;53.00;;;;;;6272204;28;20021;-72
2022/06/22 05:34:51;;;;;;;1.33;0.70;;;22.80;53.20;;;;;;6273668;28;20063;-72
2022/06/22 05:37:53;;;;;;;;;;;22.80;53.20;;;;;;6273823;28;20028;-72
2022/06/22 05:40:55;;;;;;;0.57;0.57;;;22.80;53.20;;;;;;6271768;28;20068;-72
2022/06/22 05:44:00;;;;;;;0.98;0.80;;;22.80;53.10;;;;;;6273215;28;20037;-73
2022/06/22 05:47:03;;;;;;;0.50;0.45;;;22.80;53.20;;;;;;6271701;28;20053;-72
2022/06/22 05:50:24;;;;;;;0.98;0.68;;;22.70;53.10;;;;;;6273258;28;20104;-72
2022/06/22 05:53:42;;;;;;;1.20;0.70;;;22.80;53.20;;;;;;6272847;28;20489;-72
2022/06/22 05:56:45;;;;;;;1.85;0.68;;;22.80;53.30;;;;;;6272662;28;20387;-72
2022/06/22 05:59:48;;;;;;;0.60;0.60;;;22.80;53.20;;;;;;6271521;28;20036;-72
2022/06/22 06:03:16;;;;;;;0.70;0.70;;;22.70;53.10;;;;;;6273257;28;20068;-72
2022/06/22 06:06:24;;;;;;;0.57;0.57;;;22.70;53.10;;;;;;6259989;28;20371;-72
2022/06/22 06:09:29;;;;;;;0.90;0.68;;;22.80;53.30;;;;;;6273446;28;20430;-72
2022/06/22 06:12:39;;;;;;;0.65;0.65;;;22.70;53.10;;;;;;6272762;28;20028;-72
2022/06/22 06:15:40;;;;;;;0.82;0.70;;;22.70;53.20;;;;;;6274325;28;20025;-72
2022/06/22 06:18:44;;;;;;;0.50;0.50;;;22.70;53.30;;;;;;6273681;28;20035;-72
2022/06/22 06:21:46;;;;;;;0.80;0.80;;;22.70;53.30;;;;;;6273401;28;20520;-72
2022/06/22 06:28:24;;;;;;;0.55;0.55;;;22.70;53.30;;;;;;6274517;28;20418;-72
2022/06/22 06:31:43;;;;;;;0.52;0.52;;;22.70;53.30;;;;;;6274086;28;20074;-72
2022/06/22 06:34:55;;;;;;;1.40;0.80;;;22.70;53.30;;;;;;6274147;28;20063;-72
2022/06/22 06:38:17;;;;;;;0.95;0.70;;;22.70;53.90;;;;;;6274780;28;20029;-72
2022/06/22 06:41:40;;;;;;;1.00;0.60;;;22.70;53.30;;;;;;6274026;28;20017;-72
2022/06/22 06:44:44;;;;;;;0.65;0.57;;;22.70;53.30;;;;;;6273200;28;20069;-72
2022/06/22 06:47:49;;;;;;;0.70;0.63;;;22.70;53.30;;;;;;6274131;28;20055;-72
2022/06/22 06:50:54;;;;;;;0.80;0.60;;;22.70;53.30;;;;;;6274283;28;20025;-72
2022/06/22 06:54:10;;;;;;;1.70;0.77;;;22.70;53.30;;;;;;6260709;28;20083;-72
2022/06/22 06:57:17;;;;;;;0.80;0.63;;;22.70;53.30;;;;;;6273872;28;20472;-72
2022/06/22 07:00:18;;;;;;;0.73;0.70;;;22.70;53.30;;;;;;6273425;28;20120;-72
2022/06/22 07:03:24;;;;;;;0.50;0.50;;;22.70;53.30;;;;;;6274156;28;20025;-72
2022/06/22 07:06:26;;;;;;;0.50;0.50;;;22.60;53.20;;;;;;6273805;28;20035;-72
2022/06/22 07:09:31;;;;;;;0.75;0.50;;;22.70;53.40;;;;;;6272405;28;20017;-72
2022/06/22 07:12:45;;;;;;;0.90;0.70;;;22.70;53.30;;;;;;6272453;28;20025;-72
2022/06/22 07:15:51;;;;;;;0.65;0.50;;;22.70;53.30;;;;;;6273806;28;20427;-72
2022/06/22 07:18:52;;;;;;;1.00;0.70;;;22.70;53.40;;;;;;6274141;28;20036;-72
2022/06/22 07:22:16;;;;;;;1.10;0.60;;;22.70;53.30;;;;;;6272468;28;20043;-72
2022/06/22 07:25:42;;;;;;;0.40;0.40;;;22.60;53.30;;;;;;6271614;28;20057;-72
2022/06/22 07:28:57;;;;;;;0.75;0.70;;;22.70;53.40;;;;;;6273538;28;20614;-72
2022/06/22 07:32:13;;;;;;;0.95;0.50;;;22.60;53.20;;;;;;6272104;28;20059;-72
2022/06/22 07:35:41;;;;;;;1.05;0.50;;;22.60;53.30;;;;;;6273549;28;20552;-72
2022/06/22 07:38:50;;;;;;;0.50;0.50;;;22.60;53.30;;;;;;6272238;28;20060;-71
2022/06/22 07:41:50;;;;;;;0.40;0.40;;;22.60;53.30;;;;;;6273316;28;20385;-72
2022/06/22 07:44:52;;;;;;;0.57;0.50;;;22.60;53.30;;;;;;6271712;28;20053;-72
2022/06/22 07:48:11;;;;;;;0.40;0.40;;;22.60;53.40;;;;;;6273678;28;20124;-72
2022/06/22 07:51:22;;;;;;;0.57;0.50;;;22.60;53.30;;;;;;6273455;28;20017;-71
2022/06/22 07:54:27;;;;;;;0.43;0.40;;;22.60;53.40;;;;;;6273435;28;20028;-72
2022/06/22 07:57:47;;;;;;;0.77;0.60;;;22.60;53.40;;;;;;6272059;28;20110;-72
2022/06/22 08:00:52;;;;;;;0.50;0.50;;;22.60;53.40;;;;;;6273035;28;20017;-72
2022/06/22 08:04:21;;;;;;;0.95;0.60;;;22.60;53.30;;;;;;6273230;28;20029;-72
2022/06/22 08:07:37;;;;;;;0.50;0.50;;;22.60;53.40;;;;;;6259162;28;20565;-72
2022/06/22 08:11:09;;;;;;;0.70;0.50;;;22.60;53.40;;;;;;6271429;28;20417;-71
2022/06/22 08:14:18;;;;;;;0.55;0.50;;;22.60;53.20;;;;;;6271367;28;20029;-70
2022/06/22 08:17:43;;;;;;;0.52;0.43;;;22.60;53.40;;;;;;6271624;28;20707;-69
2022/06/22 08:20:46;;;;;;;0.47;0.47;;;22.60;53.40;;;;;;6271779;28;20074;-70
2022/06/22 08:23:48;;;;;;;0.40;0.40;;;22.60;53.50;;;;;;6270976;28;20485;-71
2022/06/22 08:26:53;;;;;;;0.85;0.40;;;22.60;53.30;;;;;;6270724;28;20025;-71
2022/06/22 08:29:55;;;;;;;0.40;0.40;;;22.60;53.20;;;;;;6271992;28;20112;-69
2022/06/22 08:33:05;;;;;;;0.50;0.50;;;22.60;53.30;;;;;;6272161;28;20416;-69
2022/06/22 08:36:31;;;;;;;0.57;0.55;;;22.60;53.30;;;;;;6271323;28;20033;-69
2022/06/22 08:39:48;;;;;;;0.52;0.50;;;22.60;53.20;;;;;;6271682;28;20553;-69
2022/06/22 08:43:04;;;;;;;0.82;0.60;;;22.60;53.30;;;;;;6271267;28;20124;-69
2022/06/22 08:46:17;;;;;;;0.50;0.50;;;22.60;53.20;;;;;;6270722;28;20045;-69
2022/06/22 08:49:27;;;;;;;0.70;0.70;;;22.60;53.30;;;;;;6271481;28;20079;-69
2022/06/22 08:52:45;;;;;;;0.40;0.40;;;22.60;53.30;;;;;;6270080;28;20381;-69
2022/06/22 08:56:07;;;;;;;0.47;0.47;;;22.60;53.30;;;;;;6271350;28;20028;-69
2022/06/22 08:59:35;;;;;;;0.57;0.50;;;22.60;53.90;;;;;;6271293;28;20021;-69
2022/06/22 09:02:44;;;;;;;0.60;0.50;;;22.60;53.20;;;;;;6271142;28;20021;-69
2022/06/22 09:06:05;;;;;;;0.43;0.43;;;22.60;53.30;;;;;;6271023;28;20105;-69
2022/06/22 09:09:14;;;;;;;0.60;0.40;;;22.60;53.30;;;;;;6269858;28;20496;-69
2022/06/22 09:12:21;;;;;;;0.40;0.40;;;22.60;53.30;;;;;;6269777;28;20032;-69
2022/06/22 09:15:54;;;;;;;0.80;0.60;;;22.60;53.30;;;;;;6270833;28;20486;-69
2022/06/22 09:18:55;;;;;;;0.65;0.50;;;22.60;53.20;;;;;;6270363;28;20041;-69
2022/06/22 09:22:05;;;;;;;0.65;0.65;;;22.60;53.30;;;;;;6269718;28;20398;-69
2022/06/22 09:25:52;;;;;;;0.60;0.43;;;22.60;53.30;;;;;;6269469;28;20025;-69
2022/06/22 09:28:56;;;;;;;0.32;0.32;;;22.60;53.30;;;;;;6220159;28;20554;-69
2022/06/22 09:32:26;;;;;;;0.93;0.57;;;22.60;53.30;;;;;;6270777;28;20308;-70
2022/06/22 09:36:11;;;;;;;0.50;0.50;;;22.60;53.30;;;;;;6256652;28;20036;-69
2022/06/22 09:39:42;;;;;;;0.60;0.50;;;22.60;53.30;;;;;;6270313;28;20108;-69
2022/06/22 09:43:11;;;;;;;0.43;0.40;;;22.60;53.30;;;;;;6270257;28;20041;-69
2022/06/22 09:46:20;;;;;;;0.40;0.40;;;22.60;53.40;;;;;;6271062;28;20485;-69
2022/06/22 09:49:50;;;;;;;0.60;0.40;;;22.60;53.50;;;;;;6274149;28;20111;-69
2022/06/22 09:52:58;;;;;;;0.50;0.43;;;22.60;53.50;;;;;;6274968;28;20115;-69
2022/06/22 09:56:20;;;;;;;0.52;0.52;;;22.60;53.50;;;;;;6274992;28;20108;-69
2022/06/22 09:59:42;;;;;;;0.63;0.50;;;22.60;53.40;;;;;;6275100;28;20084;-69
2022/06/22 10:02:52;;;;;;;0.40;0.40;;;22.60;53.30;;;;;;6275032;28;20036;-69
2022/06/22 10:06:05;;;;;;;0.50;0.50;;;22.60;53.40;;;;;;6274765;28;20478;-69
2022/06/22 10:09:29;;;;;;;0.40;0.40;;;22.60;53.30;;;;;;6274849;28;20017;-69
2022/06/22 10:12:39;;;;;;;0.38;0.38;;;22.60;53.30;;;;;;6273644;28;20025;-70
2022/06/22 10:15:59;;;;;;;0.47;0.47;;;22.60;53.30;;;;;;6274682;28;20028;-69
2022/06/22 10:19:27;;;;;;;0.40;0.30;;;22.60;53.30;;;;;;6273273;28;20056;-69
2022/06/22 10:22:53;;;;;;;0.50;0.50;;;22.60;53.40;;;;;;6274461;28;20413;-69
2022/06/22 10:26:19;;;;;;;0.65;0.52;;;22.60;53.30;;;;;;6274421;28;20099;-69
2022/06/22 10:29:48;;;;;;;0.32;0.32;;;22.60;53.40;;;;;;6274353;28;20029;-69
2022/06/22 10:33:05;;;;;;;0.40;0.38;;;22.60;53.30;;;;;;6272893;28;20400;-69
2022/06/22 10:36:28;;;;;;;0.30;0.30;;;22.60;53.40;;;;;;6273915;28;20017;-69
2022/06/22 10:40:02;;;;;;;0.47;0.47;;;22.60;53.40;;;;;;6272439;28;20048;-69
2022/06/22 10:46:41;;;;;;;0.40;0.40;;;22.60;53.30;;;;;;6273838;28;20037;-69
2022/06/22 10:50:02;;;;;;;0.47;0.47;;;22.60;53.40;;;;;;6273907;28;20032;-69
2022/06/22 10:53:54;;;;;;;0.60;0.50;;;22.60;53.40;;;;;;6273904;28;20025;-69
2022/06/22 10:57:16;;;;;;;0.50;0.50;;;22.60;53.40;;;;;;6273662;28;20029;-69
2022/06/22 11:00:20;;;;;;;0.30;0.30;;;22.60;53.40;;;;;;6273772;28;20102;-69
2022/06/22 11:03:57;;;;;;;0.90;0.60;;;22.60;53.40;;;;;;6273568;28;20112;-69
2022/06/22 11:07:32;;;;;;;0.60;0.55;;;22.60;53.40;;;;;;6273495;28;20049;-69
2022/06/22 11:10:42;;;;;;;0.50;0.50;;;22.60;53.40;;;;;;6273940;28;20021;-69
2022/06/22 11:13:57;;;;;;;0.43;0.40;;;22.60;53.40;;;;;;6272404;28;20059;-69
2022/06/22 11:17:19;;;;;;;0.43;0.40;;;22.60;53.40;;;;;;6273595;28;20370;-69
2022/06/22 11:20:34;;;;;;;0.40;0.40;;;22.60;53.40;;;;;;6273395;28;20032;-69
2022/06/22 11:24:02;;;;;;;0.50;0.50;;;22.60;53.40;;;;;;6273041;28;20033;-69
2022/06/22 11:33:54;;;;;;;;;;;22.50;53.40;;;;;;6273417;28;20059;-69
2022/06/22 11:37:21;;;;;;;0.40;0.40;;;22.60;53.50;;;;;;6272736;28;19959;-69
2022/06/22 11:40:51;;;;;;;0.63;0.30;;;22.60;53.50;;;;;;6272799;28;20029;-69
2022/06/22 11:43:55;;;;;;;0.38;0.30;;;22.50;53.40;;;;;;6272042;28;20099;-69
2022/06/22 11:47:00;;;;;;;0.22;0.22;;;22.50;53.50;;;;;;6272627;28;20049;-69
2022/06/22 11:50:25;;;;;;;0.45;0.40;;;22.60;53.50;;;;;;6272532;28;20036;-69
2022/06/22 11:54:11;;;;;;;0.35;0.35;;;22.60;53.40;;;;;;6271385;28;20139;-70
2022/06/22 11:57:30;;;;;;;0.65;0.40;;;22.60;53.50;;;;;;6262092;28;20040;-69
2022/06/22 12:00:43;;;;;;;0.30;0.30;;;22.60;53.40;;;;;;6272538;28;20028;-70
2022/06/22 12:03:57;;;;;;;0.50;0.50;;;22.50;53.40;;;;;;6271961;28;20032;-69
2022/06/22 12:07:16;;;;;;;0.47;0.40;;;22.60;53.50;;;;;;6271875;28;20021;-69
2022/06/22 12:10:42;;;;;;;0.30;0.30;;;22.60;53.40;;;;;;6271608;28;20488;-69
2022/06/22 12:18:02;;;;;;;0.45;0.35;;;22.60;53.40;;;;;;6271821;28;20021;-69
2022/06/22 12:21:08;;;;;;;0.55;0.55;;;22.60;53.50;;;;;;6271921;28;20027;-69
2022/06/22 12:24:15;;;;;;;0.25;0.25;;;22.60;53.50;;;;;;6270463;28;20047;-69
2022/06/22 12:27:31;;;;;;;0.40;0.40;;;22.60;53.50;;;;;;6271757;28;20052;-69
2022/06/22 12:30:41;;;;;;;0.50;0.30;;;22.60;53.50;;;;;;6271674;28;20025;-69
2022/06/22 12:33:47;;;;;;;0.30;0.30;;;22.60;53.50;;;;;;6271627;28;20029;-69
2022/06/22 12:36:51;;;;;;;0.40;0.40;;;22.60;53.50;;;;;;6271263;28;20159;-70
2022/06/22 12:40:41;;;;;;;0.35;0.32;;;22.60;53.50;;;;;;6270412;28;20052;-69
2022/06/22 12:43:51;;;;;;;0.63;0.43;;;22.60;53.50;;;;;;6234233;28;20099;-70
2022/06/22 12:47:20;;;;;;;0.50;0.40;;;22.60;53.50;;;;;;6270787;28;20033;-69
2022/06/22 12:50:45;;;;;;;0.30;0.30;;;22.60;53.50;;;;;;6271183;28;20052;-69
2022/06/22 12:54:10;;;;;;;0.50;0.45;;;22.50;53.40;;;;;;6271165;28;20470;-69
2022/06/22 12:57:23;;;;;;;0.40;0.40;;;22.60;53.50;;;;;;6271041;28;20619;-69
2022/06/22 13:00:24;;;;;;;0.40;0.40;;;22.50;53.40;;;;;;6271299;28;20112;-69
2022/06/22 13:03:34;;;;;;;0.20;0.20;;;22.60;53.50;;;;;;6271116;28;20532;-69
2022/06/22 13:06:39;;;;;;;0.47;0.40;;;22.50;53.40;;;;;;6271206;28;20032;-69
2022/06/22 13:09:41;;;;;;;0.20;0.20;;;22.50;53.40;;;;;;6271218;28;20017;-69
2022/06/22 13:12:54;;;;;;;0.50;0.50;;;22.60;53.50;;;;;;6271224;28;20029;-69
2022/06/22 13:16:01;;;;;;;0.30;0.30;;;22.60;53.50;;;;;;6269795;28;20071;-69
2022/06/22 13:19:13;;;;;;;0.50;0.40;;;22.60;53.50;;;;;;6270968;28;20083;-69
2022/06/22 13:22:40;;;;;;;0.90;0.50;;;22.60;53.50;;;;;;6274490;28;20552;-69
2022/06/22 13:26:09;;;;;;;0.45;0.30;;;22.60;53.50;;;;;;6274614;28;20029;-69
2022/06/22 13:29:16;;;;;;;0.40;0.40;;;22.60;53.50;;;;;;6275940;28;20031;-69
2022/06/22 13:32:19;;;;;;;0.30;0.30;;;22.50;53.40;;;;;;6275383;28;20096;-69
2022/06/22 13:35:29;;;;;;;0.30;0.30;;;22.50;53.40;;;;;;6275583;28;20042;-69
2022/06/22 13:38:57;;;;;;;0.40;0.35;;;22.50;53.40;;;;;;6275422;28;20024;-69
2022/06/22 13:41:58;;;;;;;0.30;0.30;;;22.60;53.50;;;;;;6275385;28;20064;-69
2022/06/22 13:45:21;;;;;;;0.30;0.30;;;22.50;53.40;;;;;;6273717;28;20041;-69
2022/06/22 13:48:47;;;;;;;0.30;0.30;;;22.50;53.40;;;;;;6275479;28;20017;-69
2022/06/22 13:52:15;;;;;;;0.43;0.40;;;22.50;53.50;;;;;;6275223;28;20443;-69
2022/06/22 13:55:21;;;;;;;0.30;0.30;;;22.50;53.50;;;;;;6275427;28;20035;-70
2022/06/22 13:58:35;;;;;;;0.30;0.30;;;22.50;53.50;;;;;;6275066;28;20105;-69
2022/06/22 14:01:40;;;;;;;0.32;0.32;;;22.50;53.50;;;;;;6275167;28;20062;-69
2022/06/22 14:04:48;;;;;;;0.20;0.20;;;22.50;53.40;;;;;;6274941;28;20466;-69
2022/06/22 14:08:21;;;;;;;0.38;0.32;;;22.50;53.50;;;;;;6274049;28;20025;-69
2022/06/22 14:11:27;;;;;;;0.30;0.30;;;22.50;53.40;;;;;;6273554;28;20025;-69
2022/06/22 14:14:31;;;;;;;0.40;0.40;;;22.50;53.50;;;;;;6274371;28;20029;-70
2022/06/22 14:17:36;;;;;;;0.43;0.43;;;22.50;53.50;;;;;;6274909;28;20025;-69
2022/06/22 14:20:41;;;;;;;0.40;0.40;;;22.50;54.20;;;;;;6274696;28;20049;-69
2022/06/22 14:23:42;;;;;;;0.32;0.32;;;22.50;53.50;;;;;;6273052;28;20025;-69
2022/06/22 14:27:06;;;;;;;0.40;0.40;;;22.50;53.50;;;;;;6274467;28;20036;-69
2022/06/22 14:30:30;;;;;;;0.57;0.50;;;22.50;53.50;;;;;;6274549;28;20492;-69
2022/06/22 14:33:40;;;;;;;0.33;0.30;;;22.50;53.50;;;;;;6273531;28;20021;-69
2022/06/22 14:36:49;;;;;;;0.50;0.43;;;22.50;53.50;;;;;;6274412;28;20021;-69
2022/06/22 14:40:15;;;;;;;0.40;0.40;;;22.50;53.50;;;;;;6274209;28;20025;-69
2022/06/22 14:43:21;;;;;;;0.52;0.40;;;22.50;53.50;;;;;;6273562;28;20041;-69
2022/06/22 14:46:40;;;;;;;0.32;0.32;;;22.50;53.50;;;;;;6272800;28;20048;-69
2022/06/22 14:50:14;;;;;;;0.30;0.30;;;22.50;53.60;;;;;;6273898;28;20151;-69
2022/06/22 14:53:41;;;;;;;0.20;0.20;;;22.50;53.50;;;;;;6264813;28;20445;-69
2022/06/22 14:56:54;;;;;;;1.05;0.30;;;22.50;53.50;;;;;;6272997;28;20017;-69
2022/06/22 15:00:17;;;;;;;0.40;0.40;;;22.50;53.60;;;;;;6273411;28;20029;-69
2022/06/22 15:03:36;;;;;;;0.38;0.38;;;22.50;53.60;;;;;;6273557;28;20025;-69
2022/06/22 15:06:56;;;;;;;0.38;0.30;;;22.50;53.60;;;;;;6272670;28;20086;-69
2022/06/22 15:10:19;;;;;;;0.43;0.40;;;22.50;53.60;;;;;;6272295;28;20017;-70
2022/06/22 15:13:45;;;;;;;0.40;0.40;;;22.50;53.60;;;;;;6273223;28;20112;-69
2022/06/22 15:16:55;;;;;;;0.20;0.20;;;22.50;53.60;;;;;;6273209;28;20028;-69
2022/06/22 15:20:22;;;;;;;0.22;0.22;;;22.50;53.60;;;;;;6273455;28;20023;-69
2022/06/22 15:23:53;;;;;;;0.30;0.28;;;22.50;53.50;;;;;;6273375;28;20052;-69
2022/06/22 15:27:04;;;;;;;0.22;0.22;;;22.50;53.50;;;;;;6273272;28;20017;-69
2022/06/22 15:30:22;;;;;;;0.52;0.50;;;22.50;53.60;;;;;;6272818;28;20017;-69
2022/06/22 15:33:30;;;;;;;0.32;0.32;;;22.50;53.50;;;;;;6246716;28;20112;-69
2022/06/22 15:36:37;;;;;;;0.30;0.30;;;22.50;53.50;;;;;;6246937;28;20052;-69
2022/06/22 15:39:49;;;;;;;0.22;0.22;;;22.50;53.50;;;;;;6246694;28;20475;-69
2022/06/22 15:43:08;;;;;;;0.55;0.40;;;22.50;53.50;;;;;;6263945;28;20044;-69
2022/06/22 15:46:17;;;;;;;0.50;0.50;;;22.50;53.50;;;;;;6271556;28;20566;-69
2022/06/22 15:49:57;;;;;;;0.43;0.43;;;22.50;53.50;;;;;;6271119;28;20021;-69
2022/06/22 15:53:29;;;;;;;0.75;0.50;;;22.50;53.50;;;;;;6271715;28;20036;-69
2022/06/22 15:56:34;;;;;;;0.70;0.50;;;22.50;53.50;;;;;;6267819;28;20036;-69
2022/06/22 15:59:50;;;;;;;0.40;0.40;;;22.50;53.50;;;;;;6272477;28;20105;-69
2022/06/22 16:03:15;;;;;;;0.47;0.47;;;22.50;53.50;;;;;;6272184;28;20075;-69
2022/06/22 16:06:34;;;;;;;0.63;0.50;;;22.50;53.50;;;;;;6271985;28;20040;-69
2022/06/22 16:10:10;;;;;;;0.75;0.45;;;22.50;53.50;;;;;;6272031;28;20035;-69
2022/06/22 16:13:27;;;;;;;0.63;0.50;;;22.50;53.50;;;;;;6271685;28;20052;-69
2022/06/22 16:16:47;;;;;;;0.70;0.50;;;22.50;53.60;;;;;;6268526;28;20091;-69
2022/06/22 16:20:06;;;;;;;0.57;0.50;;;22.50;53.60;;;;;;6269613;28;20059;-69
2022/06/22 16:23:33;;;;;;;0.40;0.40;;;22.50;53.60;;;;;;6268396;28;20492;-69
2022/06/22 16:26:46;;;;;;;0.60;0.60;;;22.50;53.60;;;;;;6268978;28;20037;-69
2022/06/22 16:29:56;;;;;;;0.47;0.40;;;22.50;53.60;;;;;;6268874;28;20116;-69
2022/06/22 16:33:02;;;;;;;0.30;0.30;;;22.50;53.60;;;;;;6269295;28;20040;-69
2022/06/22 16:36:27;;;;;;;0.30;0.30;;;22.50;53.60;;;;;;6269288;28;20021;-69
2022/06/22 16:39:42;;;;;;;0.50;0.50;;;22.50;53.60;;;;;;6269437;28;20027;-69
2022/06/22 16:42:52;;;;;;;0.70;0.60;;;22.50;53.50;;;;;;6267700;28;20037;-69
2022/06/22 16:45:56;;;;;;;0.65;0.60;;;22.50;53.50;;;;;;6269034;28;20092;-69
2022/06/22 16:49:10;;;;;;;0.40;0.35;;;22.50;53.60;;;;;;6269157;28;20021;-69
2022/06/22 16:52:17;;;;;;;0.50;0.50;;;22.50;53.60;;;;;;6268016;28;20025;-70
2022/06/22 16:55:19;;;;;;;0.70;0.60;;;22.50;53.60;;;;;;6268684;28;20045;-69
2022/06/22 16:58:32;;;;;;;0.50;0.47;;;22.50;53.60;;;;;;6269266;28;20029;-69
2022/06/22 17:02:03;;;;;;;0.50;0.50;;;22.50;53.60;;;;;;6268282;28;20469;-69
2022/06/22 17:05:10;;;;;;;0.50;0.50;;;22.50;53.60;;;;;;6268575;28;20270;-69
2022/06/22 17:08:55;;;;;;;0.50;0.50;;;22.50;53.60;;;;;;6269219;28;20071;-69
2022/06/22 17:12:00;;;;;;;0.50;0.50;;;22.50;53.60;;;;;;6265521;28;20079;-70
2022/06/22 17:15:03;;;;;;;0.40;0.40;;;22.50;53.60;;;;;;6265706;28;20057;-69